Albany, Texas
Current Conditions -  °F | °C
As of 5:15 PM on Wednesday 22 Oct 2014 (Local Time) from KBKD Reporting Station
Haze Haze  
Wind Chill: 77°   Ceiling: 7000
Heat Index: 78°   Visibility: 5mi
Dew Point: 55°   Wind: 5mph
Humidity: 47%   Direction: 130°SE
Pressure: 30.08"   Gusts: NA
Location:  32.72°N, 99.3°W
Report Text: KBKD 222215Z AUTO 13004KT 5SM HZ SCT055 BKN070 BKN120 25/13 A3008 RMK AO2 T02490130
Loading
Personal Weather Stations






























Interactive Weather Map
Tropical Storm Tracking
New forecast layout! Learn more

10-Day Weather Forecast

Advertisements
Track Severe Weather on mobile